sensor_id;sensor_type;location;lat;lon;timestamp;P1;durP1;ratioP1;P2;durP2;ratioP2
12660;SDS011;39039;51.802;5.710;2022-08-19T00:01:11;10.20;;;7.20;;
12660;SDS011;39039;51.802;5.710;2022-08-19T00:03:38;10.02;;;6.97;;
12660;SDS011;39039;51.802;5.710;2022-08-19T00:06:05;10.15;;;7.95;;
12660;SDS011;39039;51.802;5.710;2022-08-19T00:08:32;10.43;;;7.70;;
12660;SDS011;39039;51.802;5.710;2022-08-19T00:10:59;10.38;;;7.20;;
12660;SDS011;39039;51.802;5.710;2022-08-19T00:13:26;11.55;;;7.35;;
12660;SDS011;39039;51.802;5.710;2022-08-19T00:15:53;12.00;;;7.93;;
12660;SDS011;39039;51.802;5.710;2022-08-19T00:18:22;11.10;;;7.78;;
12660;SDS011;39039;51.802;5.710;2022-08-19T00:20:49;12.55;;;7.95;;
12660;SDS011;39039;51.802;5.710;2022-08-19T00:23:16;10.80;;;7.32;;
12660;SDS011;39039;51.802;5.710;2022-08-19T00:25:43;12.73;;;8.90;;
12660;SDS011;39039;51.802;5.710;2022-08-19T00:28:10;12.65;;;8.10;;
12660;SDS011;39039;51.802;5.710;2022-08-19T00:30:37;13.27;;;8.73;;
12660;SDS011;39039;51.802;5.710;2022-08-19T00:33:05;12.10;;;7.90;;
12660;SDS011;39039;51.802;5.710;2022-08-19T00:35:34;11.97;;;8.60;;
12660;SDS011;39039;51.802;5.710;2022-08-19T00:38:03;13.90;;;9.00;;
12660;SDS011;39039;51.802;5.710;2022-08-19T00:40:31;13.07;;;9.43;;
12660;SDS011;39039;51.802;5.710;2022-08-19T00:42:58;13.02;;;8.75;;
12660;SDS011;39039;51.802;5.710;2022-08-19T00:45:26;13.43;;;8.68;;
12660;SDS011;39039;51.802;5.710;2022-08-19T00:47:55;15.73;;;10.57;;
12660;SDS011;39039;51.802;5.710;2022-08-19T00:50:22;14.07;;;9.57;;
12660;SDS011;39039;51.802;5.710;2022-08-19T00:52:51;14.43;;;10.20;;
12660;SDS011;39039;51.802;5.710;2022-08-19T00:55:20;15.83;;;10.77;;
12660;SDS011;39039;51.802;5.710;2022-08-19T00:57:49;15.97;;;10.50;;
12660;SDS011;39039;51.802;5.710;2022-08-19T01:00:19;14.97;;;10.87;;
12660;SDS011;39039;51.802;5.710;2022-08-19T01:02:46;16.23;;;10.30;;
12660;SDS011;39039;51.802;5.710;2022-08-19T01:05:14;17.23;;;10.33;;
12660;SDS011;39039;51.802;5.710;2022-08-19T01:07:43;17.00;;;9.93;;
12660;SDS011;39039;51.802;5.710;2022-08-19T01:10:13;15.00;;;9.90;;
12660;SDS011;39039;51.802;5.710;2022-08-19T01:12:41;18.60;;;10.17;;
12660;SDS011;39039;51.802;5.710;2022-08-19T01:15:10;17.97;;;10.13;;
12660;SDS011;39039;51.802;5.710;2022-08-19T01:17:38;14.20;;;9.83;;
12660;SDS011;39039;51.802;5.710;2022-08-19T01:20:06;15.33;;;9.63;;
12660;SDS011;39039;51.802;5.710;2022-08-19T01:22:38;18.70;;;10.77;;
12660;SDS011;39039;51.802;5.710;2022-08-19T01:25:08;16.90;;;11.33;;
12660;SDS011;39039;51.802;5.710;2022-08-19T01:27:38;18.93;;;11.77;;
12660;SDS011;39039;51.802;5.710;2022-08-19T01:30:06;19.70;;;12.33;;
12660;SDS011;39039;51.802;5.710;2022-08-19T01:32:33;18.53;;;11.70;;
12660;SDS011;39039;51.802;5.710;2022-08-19T01:35:00;18.17;;;12.00;;
12660;SDS011;39039;51.802;5.710;2022-08-19T01:37:28;17.23;;;11.20;;
12660;SDS011;39039;51.802;5.710;2022-08-19T01:39:56;22.37;;;11.80;;
12660;SDS011;39039;51.802;5.710;2022-08-19T01:42:23;17.10;;;11.43;;
12660;SDS011;39039;51.802;5.710;2022-08-19T01:44:50;22.47;;;13.80;;
12660;SDS011;39039;51.802;5.710;2022-08-19T01:47:17;25.43;;;14.20;;
12660;SDS011;39039;51.802;5.710;2022-08-19T01:49:44;22.30;;;14.70;;
12660;SDS011;39039;51.802;5.710;2022-08-19T01:52:11;23.07;;;13.90;;
12660;SDS011;39039;51.802;5.710;2022-08-19T01:54:38;21.67;;;14.07;;
12660;SDS011;39039;51.802;5.710;2022-08-19T01:57:08;23.77;;;14.93;;
12660;SDS011;39039;51.802;5.710;2022-08-19T01:59:37;33.00;;;17.30;;
12660;SDS011;39039;51.802;5.710;2022-08-19T02:02:04;28.97;;;17.03;;
12660;SDS011;39039;51.802;5.710;2022-08-19T02:04:32;28.40;;;17.00;;
12660;SDS011;39039;51.802;5.710;2022-08-19T02:06:59;27.70;;;17.87;;
12660;SDS011;39039;51.802;5.710;2022-08-19T02:09:26;30.83;;;17.93;;
12660;SDS011;39039;51.802;5.710;2022-08-19T02:11:53;36.87;;;19.30;;
12660;SDS011;39039;51.802;5.710;2022-08-19T02:14:22;35.13;;;19.60;;
12660;SDS011;39039;51.802;5.710;2022-08-19T02:16:49;30.80;;;18.87;;
12660;SDS011;39039;51.802;5.710;2022-08-19T02:19:16;32.70;;;18.57;;
12660;SDS011;39039;51.802;5.710;2022-08-19T02:21:43;31.27;;;19.10;;
12660;SDS011;39039;51.802;5.710;2022-08-19T02:24:10;30.60;;;18.10;;
12660;SDS011;39039;51.802;5.710;2022-08-19T02:26:37;30.33;;;17.00;;
12660;SDS011;39039;51.802;5.710;2022-08-19T02:29:04;29.97;;;17.27;;
12660;SDS011;39039;51.802;5.710;2022-08-19T02:31:32;31.80;;;18.40;;
12660;SDS011;39039;51.802;5.710;2022-08-19T02:33:59;35.90;;;19.27;;
12660;SDS011;39039;51.802;5.710;2022-08-19T02:36:26;34.03;;;19.67;;
12660;SDS011;39039;51.802;5.710;2022-08-19T02:38:55;36.00;;;20.10;;
12660;SDS011;39039;51.802;5.710;2022-08-19T02:41:22;39.10;;;20.67;;
12660;SDS011;39039;51.802;5.710;2022-08-19T02:43:50;26.77;;;17.93;;
12660;SDS011;39039;51.802;5.710;2022-08-19T02:46:18;26.43;;;16.10;;
12660;SDS011;39039;51.802;5.710;2022-08-19T02:48:47;25.67;;;15.17;;
12660;SDS011;39039;51.802;5.710;2022-08-19T02:51:17;22.97;;;13.93;;
12660;SDS011;39039;51.802;5.710;2022-08-19T02:53:45;21.17;;;13.93;;
12660;SDS011;39039;51.802;5.710;2022-08-19T02:56:12;21.27;;;13.33;;
12660;SDS011;39039;51.802;5.710;2022-08-19T02:58:39;20.00;;;13.00;;
12660;SDS011;39039;51.802;5.710;2022-08-19T03:01:08;23.10;;;13.77;;
12660;SDS011;39039;51.802;5.710;2022-08-19T03:03:36;22.90;;;13.53;;
12660;SDS011;39039;51.802;5.710;2022-08-19T03:06:05;21.70;;;13.87;;
12660;SDS011;39039;51.802;5.710;2022-08-19T03:08:32;25.37;;;15.13;;
12660;SDS011;39039;51.802;5.710;2022-08-19T03:11:00;22.80;;;14.27;;
12660;SDS011;39039;51.802;5.710;2022-08-19T03:13:27;22.83;;;13.97;;
12660;SDS011;39039;51.802;5.710;2022-08-19T03:15:54;24.03;;;14.53;;
12660;SDS011;39039;51.802;5.710;2022-08-19T03:18:21;25.63;;;15.60;;
12660;SDS011;39039;51.802;5.710;2022-08-19T03:20:49;23.43;;;13.50;;
12660;SDS011;39039;51.802;5.710;2022-08-19T03:23:19;20.80;;;13.50;;
12660;SDS011;39039;51.802;5.710;2022-08-19T03:25:47;22.57;;;15.03;;
12660;SDS011;39039;51.802;5.710;2022-08-19T03:28:15;22.23;;;14.60;;
12660;SDS011;39039;51.802;5.710;2022-08-19T03:30:43;19.33;;;13.10;;
12660;SDS011;39039;51.802;5.710;2022-08-19T03:33:21;19.40;;;12.33;;
12660;SDS011;39039;51.802;5.710;2022-08-19T03:35:58;17.27;;;11.93;;
12660;SDS011;39039;51.802;5.710;2022-08-19T03:38:27;17.80;;;12.50;;
12660;SDS011;39039;51.802;5.710;2022-08-19T03:40:54;18.50;;;12.70;;
12660;SDS011;39039;51.802;5.710;2022-08-19T03:43:21;18.67;;;12.23;;
12660;SDS011;39039;51.802;5.710;2022-08-19T03:45:48;17.23;;;11.63;;
12660;SDS011;39039;51.802;5.710;2022-08-19T03:48:16;17.90;;;12.20;;
12660;SDS011;39039;51.802;5.710;2022-08-19T03:50:43;19.20;;;12.60;;
12660;SDS011;39039;51.802;5.710;2022-08-19T03:53:10;18.80;;;12.73;;
12660;SDS011;39039;51.802;5.710;2022-08-19T03:55:40;20.57;;;13.13;;
12660;SDS011;39039;51.802;5.710;2022-08-19T03:58:07;18.43;;;12.43;;
12660;SDS011;39039;51.802;5.710;2022-08-19T04:00:35;21.07;;;12.57;;
12660;SDS011;39039;51.802;5.710;2022-08-19T04:03:02;22.40;;;13.33;;
12660;SDS011;39039;51.802;5.710;2022-08-19T04:05:30;20.50;;;12.83;;
12660;SDS011;39039;51.802;5.710;2022-08-19T04:07:57;24.00;;;13.73;;
12660;SDS011;39039;51.802;5.710;2022-08-19T04:10:24;19.03;;;12.77;;
12660;SDS011;39039;51.802;5.710;2022-08-19T04:12:52;18.93;;;11.97;;
12660;SDS011;39039;51.802;5.710;2022-08-19T04:15:19;17.87;;;12.17;;
12660;SDS011;39039;51.802;5.710;2022-08-19T04:17:46;23.43;;;13.73;;
12660;SDS011;39039;51.802;5.710;2022-08-19T04:20:13;21.60;;;13.63;;
12660;SDS011;39039;51.802;5.710;2022-08-19T04:22:40;21.43;;;13.57;;
12660;SDS011;39039;51.802;5.710;2022-08-19T04:25:08;24.67;;;14.50;;
12660;SDS011;39039;51.802;5.710;2022-08-19T04:27:35;26.33;;;14.87;;
12660;SDS011;39039;51.802;5.710;2022-08-19T04:30:04;21.40;;;13.50;;
12660;SDS011;39039;51.802;5.710;2022-08-19T04:32:31;25.67;;;14.33;;
12660;SDS011;39039;51.802;5.710;2022-08-19T04:34:58;22.77;;;13.90;;
12660;SDS011;39039;51.802;5.710;2022-08-19T04:37:26;25.60;;;15.40;;
12660;SDS011;39039;51.802;5.710;2022-08-19T04:39:56;27.30;;;16.30;;
12660;SDS011;39039;51.802;5.710;2022-08-19T04:42:52;29.87;;;15.83;;
12660;SDS011;39039;51.802;5.710;2022-08-19T04:45:21;28.30;;;16.93;;
12660;SDS011;39039;51.802;5.710;2022-08-19T04:47:48;28.70;;;16.47;;
12660;SDS011;39039;51.802;5.710;2022-08-19T04:50:15;31.90;;;17.03;;
12660;SDS011;39039;51.802;5.710;2022-08-19T04:52:42;36.70;;;18.03;;
12660;SDS011;39039;51.802;5.710;2022-08-19T04:55:09;29.80;;;17.70;;
12660;SDS011;39039;51.802;5.710;2022-08-19T04:57:36;27.53;;;17.07;;
12660;SDS011;39039;51.802;5.710;2022-08-19T05:00:05;30.73;;;17.50;;
12660;SDS011;39039;51.802;5.710;2022-08-19T05:02:34;25.53;;;16.00;;
12660;SDS011;39039;51.802;5.710;2022-08-19T05:05:00;22.67;;;14.90;;
12660;SDS011;39039;51.802;5.710;2022-08-19T05:07:28;26.90;;;15.83;;
12660;SDS011;39039;51.802;5.710;2022-08-19T05:09:55;23.33;;;14.77;;
12660;SDS011;39039;51.802;5.710;2022-08-19T05:12:23;29.00;;;17.40;;
12660;SDS011;39039;51.802;5.710;2022-08-19T05:14:50;25.33;;;16.20;;
12660;SDS011;39039;51.802;5.710;2022-08-19T05:17:17;25.90;;;15.60;;
12660;SDS011;39039;51.802;5.710;2022-08-19T05:19:45;25.57;;;15.43;;
12660;SDS011;39039;51.802;5.710;2022-08-19T05:22:30;27.23;;;16.73;;
12660;SDS011;39039;51.802;5.710;2022-08-19T05:25:01;29.23;;;17.43;;
12660;SDS011;39039;51.802;5.710;2022-08-19T05:27:28;30.03;;;18.17;;
12660;SDS011;39039;51.802;5.710;2022-08-19T05:29:55;28.95;;;18.02;;
12660;SDS011;39039;51.802;5.710;2022-08-19T05:32:22;26.77;;;17.17;;
12660;SDS011;39039;51.802;5.710;2022-08-19T05:34:50;34.45;;;18.65;;
12660;SDS011;39039;51.802;5.710;2022-08-19T05:37:17;36.88;;;19.80;;
12660;SDS011;39039;51.802;5.710;2022-08-19T05:39:44;41.78;;;20.77;;
12660;SDS011;39039;51.802;5.710;2022-08-19T05:42:11;37.40;;;20.05;;
12660;SDS011;39039;51.802;5.710;2022-08-19T05:44:39;40.33;;;19.63;;
12660;SDS011;39039;51.802;5.710;2022-08-19T05:47:08;41.58;;;21.88;;
12660;SDS011;39039;51.802;5.710;2022-08-19T05:49:36;41.45;;;22.48;;
12660;SDS011;39039;51.802;5.710;2022-08-19T05:52:04;43.10;;;23.33;;
12660;SDS011;39039;51.802;5.710;2022-08-19T05:54:32;49.17;;;25.55;;
12660;SDS011;39039;51.802;5.710;2022-08-19T05:57:01;51.45;;;24.73;;
12660;SDS011;39039;51.802;5.710;2022-08-19T05:59:28;43.58;;;24.02;;
12660;SDS011;39039;51.802;5.710;2022-08-19T06:01:55;58.92;;;27.27;;
12660;SDS011;39039;51.802;5.710;2022-08-19T06:04:23;49.90;;;24.90;;
12660;SDS011;39039;51.802;5.710;2022-08-19T06:06:51;46.75;;;23.10;;
12660;SDS011;39039;51.802;5.710;2022-08-19T06:09:20;48.63;;;24.48;;
12660;SDS011;39039;51.802;5.710;2022-08-19T06:11:48;48.55;;;24.25;;
12660;SDS011;39039;51.802;5.710;2022-08-19T06:14:18;54.28;;;25.00;;
12660;SDS011;39039;51.802;5.710;2022-08-19T06:16:46;56.50;;;25.70;;
12660;SDS011;39039;51.802;5.710;2022-08-19T06:19:14;53.95;;;24.63;;
12660;SDS011;39039;51.802;5.710;2022-08-19T06:21:42;53.88;;;26.35;;
12660;SDS011;39039;51.802;5.710;2022-08-19T06:24:10;49.88;;;24.85;;
12660;SDS011;39039;51.802;5.710;2022-08-19T06:26:40;54.67;;;25.52;;
12660;SDS011;39039;51.802;5.710;2022-08-19T06:29:09;58.60;;;26.15;;
12660;SDS011;39039;51.802;5.710;2022-08-19T06:31:36;49.30;;;24.13;;
12660;SDS011;39039;51.802;5.710;2022-08-19T06:34:04;48.38;;;23.55;;
12660;SDS011;39039;51.802;5.710;2022-08-19T06:36:32;52.00;;;25.25;;
12660;SDS011;39039;51.802;5.710;2022-08-19T06:39:00;47.15;;;23.40;;
12660;SDS011;39039;51.802;5.710;2022-08-19T06:41:27;43.28;;;22.45;;
12660;SDS011;39039;51.802;5.710;2022-08-19T06:43:56;47.42;;;24.75;;
12660;SDS011;39039;51.802;5.710;2022-08-19T06:46:23;52.25;;;25.45;;
12660;SDS011;39039;51.802;5.710;2022-08-19T06:48:51;44.50;;;23.33;;
12660;SDS011;39039;51.802;5.710;2022-08-19T06:51:19;44.75;;;22.83;;
12660;SDS011;39039;51.802;5.710;2022-08-19T06:53:47;43.63;;;21.63;;
12660;SDS011;39039;51.802;5.710;2022-08-19T06:56:14;45.63;;;20.90;;
12660;SDS011;39039;51.802;5.710;2022-08-19T06:58:42;42.97;;;22.55;;
12660;SDS011;39039;51.802;5.710;2022-08-19T07:01:10;42.30;;;21.90;;
12660;SDS011;39039;51.802;5.710;2022-08-19T07:03:37;47.95;;;23.70;;
12660;SDS011;39039;51.802;5.710;2022-08-19T07:06:05;48.50;;;23.63;;
12660;SDS011;39039;51.802;5.710;2022-08-19T07:08:33;38.55;;;21.52;;
12660;SDS011;39039;51.802;5.710;2022-08-19T07:11:01;40.33;;;21.20;;
12660;SDS011;39039;51.802;5.710;2022-08-19T07:13:28;46.97;;;22.38;;
12660;SDS011;39039;51.802;5.710;2022-08-19T07:16:02;41.67;;;21.10;;
12660;SDS011;39039;51.802;5.710;2022-08-19T07:18:30;43.13;;;22.35;;
12660;SDS011;39039;51.802;5.710;2022-08-19T07:21:02;40.83;;;21.60;;
12660;SDS011;39039;51.802;5.710;2022-08-19T07:23:29;45.58;;;21.17;;
12660;SDS011;39039;51.802;5.710;2022-08-19T07:25:56;40.58;;;21.92;;
12660;SDS011;39039;51.802;5.710;2022-08-19T07:28:22;42.35;;;22.63;;
12660;SDS011;39039;51.802;5.710;2022-08-19T07:30:49;41.58;;;20.70;;
12660;SDS011;39039;51.802;5.710;2022-08-19T07:33:17;40.15;;;20.92;;
12660;SDS011;39039;51.802;5.710;2022-08-19T07:35:45;37.35;;;21.63;;
12660;SDS011;39039;51.802;5.710;2022-08-19T07:38:12;44.30;;;22.15;;
12660;SDS011;39039;51.802;5.710;2022-08-19T07:40:39;41.70;;;22.30;;
12660;SDS011;39039;51.802;5.710;2022-08-19T07:43:07;47.10;;;23.73;;
12660;SDS011;39039;51.802;5.710;2022-08-19T07:45:34;44.17;;;21.88;;
12660;SDS011;39039;51.802;5.710;2022-08-19T07:48:01;44.28;;;22.17;;
12660;SDS011;39039;51.802;5.710;2022-08-19T07:50:28;41.15;;;20.70;;
12660;SDS011;39039;51.802;5.710;2022-08-19T07:52:57;43.33;;;22.38;;
12660;SDS011;39039;51.802;5.710;2022-08-19T07:55:25;42.40;;;20.88;;
12660;SDS011;39039;51.802;5.710;2022-08-19T07:57:52;39.78;;;20.08;;
12660;SDS011;39039;51.802;5.710;2022-08-19T08:00:19;36.47;;;18.63;;
12660;SDS011;39039;51.802;5.710;2022-08-19T08:02:46;36.28;;;19.15;;
12660;SDS011;39039;51.802;5.710;2022-08-19T08:05:13;36.10;;;19.77;;
12660;SDS011;39039;51.802;5.710;2022-08-19T08:07:59;31.45;;;18.10;;
12660;SDS011;39039;51.802;5.710;2022-08-19T08:10:44;37.10;;;18.38;;
12660;SDS011;39039;51.802;5.710;2022-08-19T08:13:11;35.65;;;18.20;;
12660;SDS011;39039;51.802;5.710;2022-08-19T08:15:38;35.40;;;19.13;;
12660;SDS011;39039;51.802;5.710;2022-08-19T08:18:05;31.08;;;17.10;;
12660;SDS011;39039;51.802;5.710;2022-08-19T08:20:32;34.28;;;17.13;;
12660;SDS011;39039;51.802;5.710;2022-08-19T08:23:00;29.48;;;16.60;;
12660;SDS011;39039;51.802;5.710;2022-08-19T08:25:45;31.02;;;16.75;;
12660;SDS011;39039;51.802;5.710;2022-08-19T08:28:13;30.30;;;17.05;;
12660;SDS011;39039;51.802;5.710;2022-08-19T08:30:42;32.65;;;15.63;;
12660;SDS011;39039;51.802;5.710;2022-08-19T08:33:10;29.50;;;16.73;;
12660;SDS011;39039;51.802;5.710;2022-08-19T08:35:38;23.98;;;14.25;;
12660;SDS011;39039;51.802;5.710;2022-08-19T08:38:08;23.55;;;13.82;;
12660;SDS011;39039;51.802;5.710;2022-08-19T08:40:38;23.30;;;13.40;;
12660;SDS011;39039;51.802;5.710;2022-08-19T08:43:07;26.17;;;13.48;;
12660;SDS011;39039;51.802;5.710;2022-08-19T08:45:35;28.70;;;15.65;;
12660;SDS011;39039;51.802;5.710;2022-08-19T08:48:11;26.90;;;13.07;;
12660;SDS011;39039;51.802;5.710;2022-08-19T08:50:44;28.25;;;14.32;;
12660;SDS011;39039;51.802;5.710;2022-08-19T08:53:15;26.80;;;13.88;;
12660;SDS011;39039;51.802;5.710;2022-08-19T08:55:46;23.00;;;12.70;;
12660;SDS011;39039;51.802;5.710;2022-08-19T08:58:14;25.92;;;13.70;;
12660;SDS011;39039;51.802;5.710;2022-08-19T09:00:44;25.88;;;13.65;;
12660;SDS011;39039;51.802;5.710;2022-08-19T09:03:14;24.55;;;13.45;;
12660;SDS011;39039;51.802;5.710;2022-08-19T09:05:45;26.65;;;14.25;;
12660;SDS011;39039;51.802;5.710;2022-08-19T09:08:20;24.23;;;13.15;;
12660;SDS011;39039;51.802;5.710;2022-08-19T09:10:57;28.65;;;15.18;;
12660;SDS011;39039;51.802;5.710;2022-08-19T09:13:26;26.60;;;14.52;;
12660;SDS011;39039;51.802;5.710;2022-08-19T09:15:57;28.15;;;14.45;;
12660;SDS011;39039;51.802;5.710;2022-08-19T09:18:26;25.27;;;13.70;;
12660;SDS011;39039;51.802;5.710;2022-08-19T09:20:53;24.40;;;14.88;;
12660;SDS011;39039;51.802;5.710;2022-08-19T09:23:23;25.98;;;14.68;;
12660;SDS011;39039;51.802;5.710;2022-08-19T09:25:50;25.77;;;14.15;;
12660;SDS011;39039;51.802;5.710;2022-08-19T09:28:17;27.65;;;15.48;;
12660;SDS011;39039;51.802;5.710;2022-08-19T09:30:44;28.38;;;15.65;;
12660;SDS011;39039;51.802;5.710;2022-08-19T09:33:11;29.17;;;14.75;;
12660;SDS011;39039;51.802;5.710;2022-08-19T09:35:38;29.10;;;14.40;;
12660;SDS011;39039;51.802;5.710;2022-08-19T09:38:05;30.52;;;14.82;;
12660;SDS011;39039;51.802;5.710;2022-08-19T09:40:33;28.00;;;14.00;;
12660;SDS011;39039;51.802;5.710;2022-08-19T09:43:01;26.48;;;14.02;;
12660;SDS011;39039;51.802;5.710;2022-08-19T09:45:28;28.00;;;13.57;;
12660;SDS011;39039;51.802;5.710;2022-08-19T09:47:56;24.75;;;13.40;;
12660;SDS011;39039;51.802;5.710;2022-08-19T09:50:23;25.65;;;13.40;;
12660;SDS011;39039;51.802;5.710;2022-08-19T09:52:51;26.58;;;14.77;;
12660;SDS011;39039;51.802;5.710;2022-08-19T09:55:21;24.90;;;13.05;;
12660;SDS011;39039;51.802;5.710;2022-08-19T09:57:50;23.52;;;12.50;;
12660;SDS011;39039;51.802;5.710;2022-08-19T10:00:19;21.20;;;13.02;;
12660;SDS011;39039;51.802;5.710;2022-08-19T10:02:46;27.20;;;12.55;;
12660;SDS011;39039;51.802;5.710;2022-08-19T10:05:13;29.35;;;13.07;;
12660;SDS011;39039;51.802;5.710;2022-08-19T10:07:58;22.00;;;11.90;;
12660;SDS011;39039;51.802;5.710;2022-08-19T10:10:25;18.08;;;11.82;;
12660;SDS011;39039;51.802;5.710;2022-08-19T10:12:54;20.45;;;11.65;;
12660;SDS011;39039;51.802;5.710;2022-08-19T10:15:21;21.73;;;11.35;;
12660;SDS011;39039;51.802;5.710;2022-08-19T10:17:48;21.50;;;10.88;;
12660;SDS011;39039;51.802;5.710;2022-08-19T10:20:15;21.08;;;11.15;;
12660;SDS011;39039;51.802;5.710;2022-08-19T10:22:42;26.85;;;11.52;;
12660;SDS011;39039;51.802;5.710;2022-08-19T10:25:09;21.90;;;12.25;;
12660;SDS011;39039;51.802;5.710;2022-08-19T10:27:37;22.00;;;12.43;;
12660;SDS011;39039;51.802;5.710;2022-08-19T10:30:06;19.60;;;11.95;;
12660;SDS011;39039;51.802;5.710;2022-08-19T10:32:34;22.58;;;12.32;;
12660;SDS011;39039;51.802;5.710;2022-08-19T10:35:02;18.88;;;11.32;;
12660;SDS011;39039;51.802;5.710;2022-08-19T10:37:32;17.83;;;10.50;;
12660;SDS011;39039;51.802;5.710;2022-08-19T10:39:59;20.60;;;11.02;;
12660;SDS011;39039;51.802;5.710;2022-08-19T10:42:28;19.90;;;11.57;;
12660;SDS011;39039;51.802;5.710;2022-08-19T10:44:56;20.13;;;11.60;;
12660;SDS011;39039;51.802;5.710;2022-08-19T10:47:24;18.67;;;11.35;;
12660;SDS011;39039;51.802;5.710;2022-08-19T10:49:52;20.40;;;10.88;;
12660;SDS011;39039;51.802;5.710;2022-08-19T10:52:37;18.52;;;12.07;;
12660;SDS011;39039;51.802;5.710;2022-08-19T10:55:04;19.50;;;11.13;;
12660;SDS011;39039;51.802;5.710;2022-08-19T10:57:50;22.17;;;12.27;;
12660;SDS011;39039;51.802;5.710;2022-08-19T11:00:18;21.60;;;11.45;;
12660;SDS011;39039;51.802;5.710;2022-08-19T11:02:46;18.88;;;11.60;;
12660;SDS011;39039;51.802;5.710;2022-08-19T11:05:14;19.50;;;11.48;;
12660;SDS011;39039;51.802;5.710;2022-08-19T11:07:42;17.75;;;10.98;;
12660;SDS011;39039;51.802;5.710;2022-08-19T11:10:10;17.92;;;11.40;;
12660;SDS011;39039;51.802;5.710;2022-08-19T11:12:38;18.48;;;10.82;;
12660;SDS011;39039;51.802;5.710;2022-08-19T11:15:05;19.08;;;11.20;;
12660;SDS011;39039;51.802;5.710;2022-08-19T11:17:35;18.88;;;11.52;;
12660;SDS011;39039;51.802;5.710;2022-08-19T11:20:07;18.85;;;11.32;;
12660;SDS011;39039;51.802;5.710;2022-08-19T11:22:34;20.45;;;12.18;;
12660;SDS011;39039;51.802;5.710;2022-08-19T11:25:01;18.73;;;11.30;;
12660;SDS011;39039;51.802;5.710;2022-08-19T11:27:29;20.20;;;10.98;;
12660;SDS011;39039;51.802;5.710;2022-08-19T11:29:56;22.42;;;12.55;;
12660;SDS011;39039;51.802;5.710;2022-08-19T11:32:23;21.00;;;11.52;;
12660;SDS011;39039;51.802;5.710;2022-08-19T11:34:50;20.17;;;11.23;;
12660;SDS011;39039;51.802;5.710;2022-08-19T11:37:18;18.75;;;11.82;;
12660;SDS011;39039;51.802;5.710;2022-08-19T11:39:45;15.50;;;10.63;;
12660;SDS011;39039;51.802;5.710;2022-08-19T11:42:11;17.90;;;9.93;;
12660;SDS011;39039;51.802;5.710;2022-08-19T11:44:56;15.20;;;9.80;;
12660;SDS011;39039;51.802;5.710;2022-08-19T11:47:23;18.10;;;10.95;;
12660;SDS011;39039;51.802;5.710;2022-08-19T11:49:51;21.98;;;12.13;;
12660;SDS011;39039;51.802;5.710;2022-08-19T11:52:19;22.20;;;12.32;;
12660;SDS011;39039;51.802;5.710;2022-08-19T11:54:46;20.13;;;11.95;;
12660;SDS011;39039;51.802;5.710;2022-08-19T11:57:13;22.08;;;12.20;;
12660;SDS011;39039;51.802;5.710;2022-08-19T11:59:41;19.30;;;12.00;;
12660;SDS011;39039;51.802;5.710;2022-08-19T12:02:09;21.10;;;11.50;;
12660;SDS011;39039;51.802;5.710;2022-08-19T12:04:36;21.23;;;12.85;;
12660;SDS011;39039;51.802;5.710;2022-08-19T12:07:03;18.67;;;12.07;;
12660;SDS011;39039;51.802;5.710;2022-08-19T12:09:32;17.17;;;9.98;;
12660;SDS011;39039;51.802;5.710;2022-08-19T12:12:00;17.77;;;11.20;;
12660;SDS011;39039;51.802;5.710;2022-08-19T12:14:26;18.55;;;12.10;;
12660;SDS011;39039;51.802;5.710;2022-08-19T12:16:55;18.67;;;11.60;;
12660;SDS011;39039;51.802;5.710;2022-08-19T12:19:22;21.42;;;13.25;;
12660;SDS011;39039;51.802;5.710;2022-08-19T12:21:50;19.20;;;11.93;;
12660;SDS011;39039;51.802;5.710;2022-08-19T12:24:20;20.13;;;13.25;;
12660;SDS011;39039;51.802;5.710;2022-08-19T12:26:49;18.48;;;11.00;;
12660;SDS011;39039;51.802;5.710;2022-08-19T12:29:16;15.70;;;11.18;;
12660;SDS011;39039;51.802;5.710;2022-08-19T12:31:43;20.00;;;12.35;;
12660;SDS011;39039;51.802;5.710;2022-08-19T12:34:10;18.75;;;12.07;;
12660;SDS011;39039;51.802;5.710;2022-08-19T12:36:37;18.85;;;12.23;;
12660;SDS011;39039;51.802;5.710;2022-08-19T12:39:05;19.17;;;11.85;;
12660;SDS011;39039;51.802;5.710;2022-08-19T12:41:33;20.42;;;12.07;;
12660;SDS011;39039;51.802;5.710;2022-08-19T12:44:01;22.63;;;12.88;;
12660;SDS011;39039;51.802;5.710;2022-08-19T12:46:28;19.75;;;11.13;;
12660;SDS011;39039;51.802;5.710;2022-08-19T12:48:56;24.00;;;14.20;;
12660;SDS011;39039;51.802;5.710;2022-08-19T12:51:23;17.65;;;11.80;;
12660;SDS011;39039;51.802;5.710;2022-08-19T12:53:51;20.13;;;12.45;;
12660;SDS011;39039;51.802;5.710;2022-08-19T12:56:18;19.15;;;12.85;;
12660;SDS011;39039;51.802;5.710;2022-08-19T12:58:45;19.17;;;12.93;;
12660;SDS011;39039;51.802;5.710;2022-08-19T13:01:14;22.08;;;13.73;;
12660;SDS011;39039;51.802;5.710;2022-08-19T13:03:42;22.10;;;13.20;;
12660;SDS011;39039;51.802;5.710;2022-08-19T13:06:09;19.60;;;12.88;;
12660;SDS011;39039;51.802;5.710;2022-08-19T13:08:36;16.05;;;10.60;;
12660;SDS011;39039;51.802;5.710;2022-08-19T13:11:08;17.73;;;11.15;;
12660;SDS011;39039;51.802;5.710;2022-08-19T13:13:36;18.63;;;11.52;;
12660;SDS011;39039;51.802;5.710;2022-08-19T13:16:05;19.88;;;11.48;;
12660;SDS011;39039;51.802;5.710;2022-08-19T13:18:34;18.23;;;10.75;;
12660;SDS011;39039;51.802;5.710;2022-08-19T13:21:02;20.42;;;11.77;;
12660;SDS011;39039;51.802;5.710;2022-08-19T13:23:30;17.33;;;11.75;;
12660;SDS011;39039;51.802;5.710;2022-08-19T13:25:57;19.52;;;11.90;;
12660;SDS011;39039;51.802;5.710;2022-08-19T13:28:24;17.13;;;11.50;;
12660;SDS011;39039;51.802;5.710;2022-08-19T13:30:51;22.02;;;11.98;;
12660;SDS011;39039;51.802;5.710;2022-08-19T13:33:37;17.38;;;11.32;;
12660;SDS011;39039;51.802;5.710;2022-08-19T13:36:04;20.73;;;10.55;;
12660;SDS011;39039;51.802;5.710;2022-08-19T13:38:32;19.38;;;11.77;;
12660;SDS011;39039;51.802;5.710;2022-08-19T13:41:03;22.30;;;12.40;;
12660;SDS011;39039;51.802;5.710;2022-08-19T13:43:32;19.73;;;12.05;;
12660;SDS011;39039;51.802;5.710;2022-08-19T13:45:59;16.90;;;11.23;;
12660;SDS011;39039;51.802;5.710;2022-08-19T13:48:27;18.70;;;11.10;;
12660;SDS011;39039;51.802;5.710;2022-08-19T13:50:57;17.63;;;11.15;;
12660;SDS011;39039;51.802;5.710;2022-08-19T13:53:24;19.75;;;11.18;;
12660;SDS011;39039;51.802;5.710;2022-08-19T13:55:50;22.92;;;12.68;;
12660;SDS011;39039;51.802;5.710;2022-08-19T13:58:18;20.67;;;12.80;;
12660;SDS011;39039;51.802;5.710;2022-08-19T14:00:45;20.60;;;12.45;;
12660;SDS011;39039;51.802;5.710;2022-08-19T14:03:13;25.60;;;13.00;;
12660;SDS011;39039;51.802;5.710;2022-08-19T14:05:40;25.65;;;12.63;;
12660;SDS011;39039;51.802;5.710;2022-08-19T14:08:08;21.52;;;12.38;;
12660;SDS011;39039;51.802;5.710;2022-08-19T14:10:35;18.80;;;11.85;;
12660;SDS011;39039;51.802;5.710;2022-08-19T14:13:02;21.88;;;11.63;;
12660;SDS011;39039;51.802;5.710;2022-08-19T14:15:30;21.10;;;12.25;;
12660;SDS011;39039;51.802;5.710;2022-08-19T14:17:57;22.70;;;12.40;;
12660;SDS011;39039;51.802;5.710;2022-08-19T14:20:24;20.48;;;11.20;;
12660;SDS011;39039;51.802;5.710;2022-08-19T14:22:52;20.65;;;10.70;;
12660;SDS011;39039;51.802;5.710;2022-08-19T14:25:22;16.65;;;10.30;;
12660;SDS011;39039;51.802;5.710;2022-08-19T14:27:49;19.42;;;11.55;;
12660;SDS011;39039;51.802;5.710;2022-08-19T14:30:16;21.10;;;11.77;;